sensor_id;sensor_type;location;lat;lon;timestamp;P1;durP1;ratioP1;P2;durP2;ratioP2
4698;SDS011;33708;49.466;11.176;2022-09-03T00:01:24;7.50;;;2.23;;
4698;SDS011;33708;49.466;11.176;2022-09-03T00:03:58;7.43;;;2.33;;
4698;SDS011;33708;49.466;11.176;2022-09-03T00:06:34;6.83;;;2.20;;
4698;SDS011;33708;49.466;11.176;2022-09-03T00:09:30;6.87;;;2.90;;
4698;SDS011;33708;49.466;11.176;2022-09-03T00:14:56;7.60;;;2.47;;
4698;SDS011;33708;49.466;11.176;2022-09-03T00:17:28;13.83;;;2.10;;
4698;SDS011;33708;49.466;11.176;2022-09-03T00:20:18;6.13;;;1.93;;
4698;SDS011;33708;49.466;11.176;2022-09-03T00:22:52;6.40;;;2.17;;
4698;SDS011;33708;49.466;11.176;2022-09-03T00:25:21;11.77;;;2.23;;
4698;SDS011;33708;49.466;11.176;2022-09-03T00:27:52;11.73;;;1.87;;
4698;SDS011;33708;49.466;11.176;2022-09-03T00:30:21;9.00;;;2.33;;
4698;SDS011;33708;49.466;11.176;2022-09-03T00:32:58;6.80;;;2.03;;
4698;SDS011;33708;49.466;11.176;2022-09-03T00:35:34;7.73;;;2.70;;
4698;SDS011;33708;49.466;11.176;2022-09-03T00:38:07;13.00;;;2.87;;
4698;SDS011;33708;49.466;11.176;2022-09-03T00:48:23;8.27;;;2.53;;
4698;SDS011;33708;49.466;11.176;2022-09-03T00:53:56;10.40;;;2.67;;
4698;SDS011;33708;49.466;11.176;2022-09-03T00:56:58;14.63;;;3.50;;
4698;SDS011;33708;49.466;11.176;2022-09-03T01:10:45;7.07;;;2.43;;
4698;SDS011;33708;49.466;11.176;2022-09-03T01:13:21;7.50;;;2.73;;
4698;SDS011;33708;49.466;11.176;2022-09-03T01:18:36;13.47;;;2.60;;
4698;SDS011;33708;49.466;11.176;2022-09-03T01:32:36;9.20;;;2.70;;
4698;SDS011;33708;49.466;11.176;2022-09-03T01:35:16;5.60;;;2.00;;
4698;SDS011;33708;49.466;11.176;2022-09-03T01:44:09;7.40;;;2.17;;
4698;SDS011;33708;49.466;11.176;2022-09-03T01:46:57;8.40;;;2.33;;
4698;SDS011;33708;49.466;11.176;2022-09-03T01:49:54;10.50;;;2.50;;
4698;SDS011;33708;49.466;11.176;2022-09-03T01:55:31;7.20;;;2.50;;
4698;SDS011;33708;49.466;11.176;2022-09-03T01:58:12;10.70;;;2.90;;
4698;SDS011;33708;49.466;11.176;2022-09-03T02:00:53;12.37;;;3.17;;
4698;SDS011;33708;49.466;11.176;2022-09-03T02:03:24;10.33;;;3.10;;
4698;SDS011;33708;49.466;11.176;2022-09-03T02:05:57;9.93;;;2.60;;
4698;SDS011;33708;49.466;11.176;2022-09-03T02:08:24;11.33;;;2.60;;
4698;SDS011;33708;49.466;11.176;2022-09-03T02:10:50;6.33;;;2.07;;
4698;SDS011;33708;49.466;11.176;2022-09-03T02:13:23;7.77;;;2.50;;
4698;SDS011;33708;49.466;11.176;2022-09-03T02:15:52;6.40;;;2.13;;
4698;SDS011;33708;49.466;11.176;2022-09-03T02:18:24;9.00;;;2.57;;
4698;SDS011;33708;49.466;11.176;2022-09-03T02:20:53;7.40;;;2.57;;
4698;SDS011;33708;49.466;11.176;2022-09-03T02:23:20;11.17;;;2.57;;
4698;SDS011;33708;49.466;11.176;2022-09-03T02:25:49;8.10;;;2.10;;
4698;SDS011;33708;49.466;11.176;2022-09-03T02:28:19;8.20;;;2.57;;
4698;SDS011;33708;49.466;11.176;2022-09-03T02:30:45;6.27;;;2.20;;
4698;SDS011;33708;49.466;11.176;2022-09-03T02:33:12;6.57;;;2.33;;
4698;SDS011;33708;49.466;11.176;2022-09-03T02:35:39;8.23;;;2.23;;
4698;SDS011;33708;49.466;11.176;2022-09-03T02:40:42;8.07;;;2.30;;
4698;SDS011;33708;49.466;11.176;2022-09-03T02:43:10;6.67;;;2.20;;
4698;SDS011;33708;49.466;11.176;2022-09-03T02:45:47;12.33;;;2.57;;
4698;SDS011;33708;49.466;11.176;2022-09-03T02:48:17;8.60;;;2.40;;
4698;SDS011;33708;49.466;11.176;2022-09-03T02:50:46;6.73;;;2.13;;
4698;SDS011;33708;49.466;11.176;2022-09-03T02:53:12;8.30;;;3.00;;
4698;SDS011;33708;49.466;11.176;2022-09-03T02:55:38;6.93;;;2.30;;
4698;SDS011;33708;49.466;11.176;2022-09-03T02:58:04;8.43;;;2.20;;
4698;SDS011;33708;49.466;11.176;2022-09-03T03:00:31;7.10;;;1.80;;
4698;SDS011;33708;49.466;11.176;2022-09-03T03:02:57;13.83;;;2.60;;
4698;SDS011;33708;49.466;11.176;2022-09-03T03:05:29;7.97;;;1.93;;
4698;SDS011;33708;49.466;11.176;2022-09-03T03:08:13;8.10;;;2.70;;
4698;SDS011;33708;49.466;11.176;2022-09-03T03:10:41;5.90;;;2.27;;
4698;SDS011;33708;49.466;11.176;2022-09-03T03:13:10;6.50;;;2.33;;
4698;SDS011;33708;49.466;11.176;2022-09-03T03:15:36;6.80;;;2.10;;
4698;SDS011;33708;49.466;11.176;2022-09-03T03:18:01;10.50;;;2.33;;
4698;SDS011;33708;49.466;11.176;2022-09-03T03:20:27;13.13;;;2.43;;
4698;SDS011;33708;49.466;11.176;2022-09-03T03:22:53;6.03;;;2.00;;
4698;SDS011;33708;49.466;11.176;2022-09-03T03:25:19;13.80;;;2.33;;
4698;SDS011;33708;49.466;11.176;2022-09-03T03:27:45;7.37;;;2.53;;
4698;SDS011;33708;49.466;11.176;2022-09-03T03:30:11;6.73;;;2.30;;
4698;SDS011;33708;49.466;11.176;2022-09-03T03:32:37;6.87;;;1.90;;
4698;SDS011;33708;49.466;11.176;2022-09-03T03:35:03;6.47;;;2.47;;
4698;SDS011;33708;49.466;11.176;2022-09-03T03:37:30;6.93;;;2.10;;
4698;SDS011;33708;49.466;11.176;2022-09-03T03:39:56;10.07;;;2.47;;
4698;SDS011;33708;49.466;11.176;2022-09-03T03:42:22;9.23;;;2.60;;
4698;SDS011;33708;49.466;11.176;2022-09-03T03:44:48;9.30;;;2.83;;
4698;SDS011;33708;49.466;11.176;2022-09-03T03:47:14;10.70;;;2.50;;
4698;SDS011;33708;49.466;11.176;2022-09-03T03:49:41;6.30;;;2.20;;
4698;SDS011;33708;49.466;11.176;2022-09-03T03:52:07;14.57;;;2.47;;
4698;SDS011;33708;49.466;11.176;2022-09-03T03:54:33;8.90;;;2.50;;
4698;SDS011;33708;49.466;11.176;2022-09-03T03:56:58;8.97;;;2.30;;
4698;SDS011;33708;49.466;11.176;2022-09-03T03:59:24;6.00;;;2.10;;
4698;SDS011;33708;49.466;11.176;2022-09-03T04:01:50;10.27;;;2.57;;
4698;SDS011;33708;49.466;11.176;2022-09-03T04:04:19;16.53;;;2.43;;
4698;SDS011;33708;49.466;11.176;2022-09-03T04:06:44;13.60;;;3.53;;
4698;SDS011;33708;49.466;11.176;2022-09-03T04:09:10;8.57;;;2.30;;
4698;SDS011;33708;49.466;11.176;2022-09-03T04:11:36;6.57;;;1.97;;
4698;SDS011;33708;49.466;11.176;2022-09-03T04:14:01;6.87;;;2.27;;
4698;SDS011;33708;49.466;11.176;2022-09-03T04:16:27;8.10;;;2.50;;
4698;SDS011;33708;49.466;11.176;2022-09-03T04:18:53;6.50;;;2.60;;
4698;SDS011;33708;49.466;11.176;2022-09-03T04:21:24;6.00;;;2.20;;
4698;SDS011;33708;49.466;11.176;2022-09-03T04:23:52;7.83;;;2.30;;
4698;SDS011;33708;49.466;11.176;2022-09-03T04:26:19;6.20;;;2.30;;
4698;SDS011;33708;49.466;11.176;2022-09-03T04:28:47;7.80;;;3.20;;
4698;SDS011;33708;49.466;11.176;2022-09-03T04:31:14;8.87;;;2.30;;
4698;SDS011;33708;49.466;11.176;2022-09-03T04:33:41;8.13;;;2.73;;
4698;SDS011;33708;49.466;11.176;2022-09-03T04:36:14;7.60;;;2.70;;
4698;SDS011;33708;49.466;11.176;2022-09-03T04:38:45;6.63;;;2.40;;
4698;SDS011;33708;49.466;11.176;2022-09-03T04:41:13;8.50;;;2.60;;
4698;SDS011;33708;49.466;11.176;2022-09-03T04:43:43;6.53;;;2.80;;
4698;SDS011;33708;49.466;11.176;2022-09-03T04:46:10;6.87;;;2.33;;
4698;SDS011;33708;49.466;11.176;2022-09-03T04:48:37;6.50;;;2.53;;
4698;SDS011;33708;49.466;11.176;2022-09-03T04:51:07;11.50;;;2.63;;
4698;SDS011;33708;49.466;11.176;2022-09-03T04:53:36;13.30;;;2.57;;
4698;SDS011;33708;49.466;11.176;2022-09-03T04:56:10;6.63;;;2.23;;
4698;SDS011;33708;49.466;11.176;2022-09-03T04:58:38;6.63;;;2.17;;
4698;SDS011;33708;49.466;11.176;2022-09-03T05:01:07;6.80;;;2.57;;
4698;SDS011;33708;49.466;11.176;2022-09-03T05:03:34;6.20;;;2.10;;
4698;SDS011;33708;49.466;11.176;2022-09-03T05:06:01;6.30;;;2.30;;
4698;SDS011;33708;49.466;11.176;2022-09-03T05:08:27;6.67;;;2.10;;
4698;SDS011;33708;49.466;11.176;2022-09-03T05:10:59;8.80;;;2.13;;
4698;SDS011;33708;49.466;11.176;2022-09-03T05:13:25;11.50;;;2.30;;
4698;SDS011;33708;49.466;11.176;2022-09-03T05:15:52;9.43;;;2.00;;
4698;SDS011;33708;49.466;11.176;2022-09-03T05:18:28;6.50;;;2.17;;
4698;SDS011;33708;49.466;11.176;2022-09-03T05:21:00;6.50;;;2.17;;
4698;SDS011;33708;49.466;11.176;2022-09-03T05:23:31;7.63;;;2.40;;
4698;SDS011;33708;49.466;11.176;2022-09-03T05:26:00;8.63;;;2.30;;
4698;SDS011;33708;49.466;11.176;2022-09-03T05:28:28;6.17;;;2.23;;
4698;SDS011;33708;49.466;11.176;2022-09-03T05:30:58;6.60;;;2.10;;
4698;SDS011;33708;49.466;11.176;2022-09-03T05:33:24;6.90;;;2.30;;
4698;SDS011;33708;49.466;11.176;2022-09-03T05:35:50;9.63;;;1.70;;
4698;SDS011;33708;49.466;11.176;2022-09-03T05:38:17;6.23;;;1.97;;
4698;SDS011;33708;49.466;11.176;2022-09-03T05:40:43;6.80;;;2.10;;
4698;SDS011;33708;49.466;11.176;2022-09-03T05:43:09;8.13;;;2.00;;
4698;SDS011;33708;49.466;11.176;2022-09-03T05:45:34;6.80;;;1.80;;
4698;SDS011;33708;49.466;11.176;2022-09-03T05:48:01;9.20;;;2.07;;
4698;SDS011;33708;49.466;11.176;2022-09-03T05:50:27;7.80;;;2.23;;
4698;SDS011;33708;49.466;11.176;2022-09-03T05:52:52;6.40;;;2.20;;
4698;SDS011;33708;49.466;11.176;2022-09-03T05:55:18;9.30;;;2.53;;
4698;SDS011;33708;49.466;11.176;2022-09-03T05:57:44;7.63;;;2.27;;
4698;SDS011;33708;49.466;11.176;2022-09-03T06:00:10;6.30;;;1.90;;
4698;SDS011;33708;49.466;11.176;2022-09-03T06:02:36;6.80;;;2.00;;
4698;SDS011;33708;49.466;11.176;2022-09-03T06:05:02;6.17;;;2.30;;
4698;SDS011;33708;49.466;11.176;2022-09-03T06:07:27;7.50;;;2.07;;
4698;SDS011;33708;49.466;11.176;2022-09-03T06:09:53;9.80;;;2.50;;
4698;SDS011;33708;49.466;11.176;2022-09-03T06:12:19;11.70;;;2.13;;
4698;SDS011;33708;49.466;11.176;2022-09-03T06:14:44;5.90;;;2.00;;
4698;SDS011;33708;49.466;11.176;2022-09-03T06:17:10;8.10;;;1.90;;
4698;SDS011;33708;49.466;11.176;2022-09-03T06:19:36;10.23;;;2.30;;
4698;SDS011;33708;49.466;11.176;2022-09-03T06:22:02;8.17;;;2.70;;
4698;SDS011;33708;49.466;11.176;2022-09-03T06:24:28;9.93;;;2.97;;
4698;SDS011;33708;49.466;11.176;2022-09-03T06:26:54;5.67;;;1.90;;
4698;SDS011;33708;49.466;11.176;2022-09-03T06:29:20;8.80;;;2.00;;
4698;SDS011;33708;49.466;11.176;2022-09-03T06:31:46;11.47;;;2.30;;
4698;SDS011;33708;49.466;11.176;2022-09-03T06:34:15;6.57;;;2.57;;
4698;SDS011;33708;49.466;11.176;2022-09-03T06:36:42;5.40;;;1.70;;
4698;SDS011;33708;49.466;11.176;2022-09-03T06:39:09;7.13;;;1.77;;
4698;SDS011;33708;49.466;11.176;2022-09-03T06:41:34;7.80;;;2.03;;
4698;SDS011;33708;49.466;11.176;2022-09-03T06:44:02;9.63;;;1.97;;
4698;SDS011;33708;49.466;11.176;2022-09-03T06:46:30;8.63;;;2.10;;
4698;SDS011;33708;49.466;11.176;2022-09-03T06:48:57;8.60;;;2.17;;
4698;SDS011;33708;49.466;11.176;2022-09-03T06:51:24;7.37;;;2.20;;
4698;SDS011;33708;49.466;11.176;2022-09-03T06:53:52;7.83;;;2.00;;
4698;SDS011;33708;49.466;11.176;2022-09-03T06:56:23;6.50;;;1.70;;
4698;SDS011;33708;49.466;11.176;2022-09-03T06:58:52;9.70;;;2.00;;
4698;SDS011;33708;49.466;11.176;2022-09-03T07:01:20;7.30;;;2.13;;
4698;SDS011;33708;49.466;11.176;2022-09-03T07:03:50;8.70;;;2.07;;
4698;SDS011;33708;49.466;11.176;2022-09-03T07:06:20;14.80;;;2.27;;
4698;SDS011;33708;49.466;11.176;2022-09-03T07:08:46;5.70;;;1.80;;
4698;SDS011;33708;49.466;11.176;2022-09-03T07:11:12;5.80;;;1.63;;
4698;SDS011;33708;49.466;11.176;2022-09-03T07:13:44;10.90;;;2.47;;
4698;SDS011;33708;49.466;11.176;2022-09-03T07:16:15;6.63;;;2.40;;
4698;SDS011;33708;49.466;11.176;2022-09-03T07:18:43;8.00;;;2.00;;
4698;SDS011;33708;49.466;11.176;2022-09-03T07:21:13;6.77;;;1.80;;
4698;SDS011;33708;49.466;11.176;2022-09-03T07:23:40;6.40;;;2.03;;
4698;SDS011;33708;49.466;11.176;2022-09-03T07:26:08;5.80;;;1.73;;
4698;SDS011;33708;49.466;11.176;2022-09-03T07:28:39;5.67;;;1.80;;
4698;SDS011;33708;49.466;11.176;2022-09-03T07:31:07;7.87;;;1.60;;
4698;SDS011;33708;49.466;11.176;2022-09-03T07:33:38;6.47;;;1.80;;
4698;SDS011;33708;49.466;11.176;2022-09-03T07:36:05;14.10;;;2.10;;
4698;SDS011;33708;49.466;11.176;2022-09-03T07:38:32;10.30;;;2.00;;
4698;SDS011;33708;49.466;11.176;2022-09-03T07:40:59;6.73;;;1.70;;
4698;SDS011;33708;49.466;11.176;2022-09-03T07:43:27;7.57;;;1.80;;
4698;SDS011;33708;49.466;11.176;2022-09-03T07:45:54;7.53;;;2.03;;
4698;SDS011;33708;49.466;11.176;2022-09-03T07:48:21;11.30;;;1.80;;
4698;SDS011;33708;49.466;11.176;2022-09-03T07:50:47;5.70;;;1.70;;
4698;SDS011;33708;49.466;11.176;2022-09-03T07:53:14;6.53;;;1.90;;
4698;SDS011;33708;49.466;11.176;2022-09-03T07:55:41;6.30;;;1.93;;
4698;SDS011;33708;49.466;11.176;2022-09-03T07:58:08;8.80;;;2.10;;
4698;SDS011;33708;49.466;11.176;2022-09-03T08:00:35;5.77;;;1.70;;
4698;SDS011;33708;49.466;11.176;2022-09-03T08:03:01;8.90;;;1.73;;
4698;SDS011;33708;49.466;11.176;2022-09-03T08:05:31;7.37;;;1.93;;
4698;SDS011;33708;49.466;11.176;2022-09-03T08:08:00;7.97;;;2.03;;
4698;SDS011;33708;49.466;11.176;2022-09-03T08:10:28;6.03;;;1.57;;
4698;SDS011;33708;49.466;11.176;2022-09-03T08:12:55;7.53;;;1.90;;
4698;SDS011;33708;49.466;11.176;2022-09-03T08:15:21;7.13;;;1.60;;
4698;SDS011;33708;49.466;11.176;2022-09-03T08:17:47;11.03;;;1.57;;
4698;SDS011;33708;49.466;11.176;2022-09-03T08:20:13;7.97;;;1.90;;
4698;SDS011;33708;49.466;11.176;2022-09-03T08:22:39;10.43;;;2.40;;
4698;SDS011;33708;49.466;11.176;2022-09-03T08:25:05;7.47;;;1.80;;
4698;SDS011;33708;49.466;11.176;2022-09-03T08:27:31;15.23;;;2.00;;
4698;SDS011;33708;49.466;11.176;2022-09-03T08:29:57;9.10;;;2.10;;
4698;SDS011;33708;49.466;11.176;2022-09-03T08:32:22;6.03;;;1.70;;
4698;SDS011;33708;49.466;11.176;2022-09-03T08:34:48;5.93;;;1.80;;
4698;SDS011;33708;49.466;11.176;2022-09-03T08:37:16;7.80;;;2.10;;
4698;SDS011;33708;49.466;11.176;2022-09-03T08:39:42;6.47;;;1.73;;
4698;SDS011;33708;49.466;11.176;2022-09-03T08:45:10;7.50;;;1.97;;
4698;SDS011;33708;49.466;11.176;2022-09-03T08:55:51;8.27;;;1.63;;
4698;SDS011;33708;49.466;11.176;2022-09-03T08:58:28;7.53;;;1.67;;
4698;SDS011;33708;49.466;11.176;2022-09-03T09:03:45;6.73;;;1.80;;
4698;SDS011;33708;49.466;11.176;2022-09-03T09:06:48;8.13;;;1.77;;
4698;SDS011;33708;49.466;11.176;2022-09-03T09:09:34;8.13;;;1.90;;
4698;SDS011;33708;49.466;11.176;2022-09-03T09:12:15;7.13;;;1.80;;
4698;SDS011;33708;49.466;11.176;2022-09-03T09:22:30;11.43;;;1.63;;
4698;SDS011;33708;49.466;11.176;2022-09-03T09:25:07;5.97;;;1.73;;
4698;SDS011;33708;49.466;11.176;2022-09-03T09:28:00;5.50;;;1.27;;
4698;SDS011;33708;49.466;11.176;2022-09-03T09:30:27;7.30;;;2.00;;
4698;SDS011;33708;49.466;11.176;2022-09-03T09:32:53;8.30;;;2.10;;
4698;SDS011;33708;49.466;11.176;2022-09-03T09:35:20;11.73;;;1.90;;
4698;SDS011;33708;49.466;11.176;2022-09-03T09:37:55;9.50;;;2.00;;
4698;SDS011;33708;49.466;11.176;2022-09-03T09:43:02;9.63;;;1.90;;
4698;SDS011;33708;49.466;11.176;2022-09-03T09:45:39;6.60;;;1.67;;
4698;SDS011;33708;49.466;11.176;2022-09-03T09:50:37;6.93;;;1.63;;
4698;SDS011;33708;49.466;11.176;2022-09-03T09:53:06;8.73;;;1.70;;
4698;SDS011;33708;49.466;11.176;2022-09-03T09:55:48;8.40;;;2.17;;
4698;SDS011;33708;49.466;11.176;2022-09-03T09:58:22;13.00;;;1.90;;
4698;SDS011;33708;49.466;11.176;2022-09-03T10:00:57;9.23;;;1.93;;
4698;SDS011;33708;49.466;11.176;2022-09-03T10:03:25;7.17;;;1.70;;
4698;SDS011;33708;49.466;11.176;2022-09-03T10:06:01;8.23;;;1.70;;
4698;SDS011;33708;49.466;11.176;2022-09-03T10:08:50;5.87;;;1.63;;
4698;SDS011;33708;49.466;11.176;2022-09-03T10:11:17;7.30;;;1.90;;
4698;SDS011;33708;49.466;11.176;2022-09-03T10:13:47;7.20;;;1.83;;
4698;SDS011;33708;49.466;11.176;2022-09-03T10:16:21;7.57;;;1.90;;
4698;SDS011;33708;49.466;11.176;2022-09-03T10:26:53;7.30;;;1.70;;
4698;SDS011;33708;49.466;11.176;2022-09-03T10:29:20;6.00;;;2.07;;
4698;SDS011;33708;49.466;11.176;2022-09-03T10:31:52;9.70;;;2.10;;
4698;SDS011;33708;49.466;11.176;2022-09-03T10:34:31;8.63;;;2.00;;
4698;SDS011;33708;49.466;11.176;2022-09-03T10:43:24;8.80;;;2.00;;
4698;SDS011;33708;49.466;11.176;2022-09-03T10:45:40;6.60;;;1.80;;
4698;SDS011;33708;49.466;11.176;2022-09-03T10:56:38;12.00;;;2.30;;
4698;SDS011;33708;49.466;11.176;2022-09-03T10:59:44;9.43;;;2.37;;
4698;SDS011;33708;49.466;11.176;2022-09-03T11:05:19;8.37;;;2.00;;
4698;SDS011;33708;49.466;11.176;2022-09-03T11:07:50;7.73;;;1.90;;
4698;SDS011;33708;49.466;11.176;2022-09-03T11:10:41;7.00;;;1.90;;
4698;SDS011;33708;49.466;11.176;2022-09-03T11:13:19;6.50;;;2.17;;
4698;SDS011;33708;49.466;11.176;2022-09-03T11:16:00;6.37;;;2.03;;
4698;SDS011;33708;49.466;11.176;2022-09-03T11:18:35;6.80;;;2.43;;
4698;SDS011;33708;49.466;11.176;2022-09-03T11:21:15;5.93;;;2.00;;
4698;SDS011;33708;49.466;11.176;2022-09-03T11:23:50;6.40;;;2.40;;
4698;SDS011;33708;49.466;11.176;2022-09-03T11:26:24;7.67;;;1.90;;
4698;SDS011;33708;49.466;11.176;2022-09-03T11:31:44;6.40;;;2.07;;
4698;SDS011;33708;49.466;11.176;2022-09-03T11:36:51;6.33;;;2.10;;
4698;SDS011;33708;49.466;11.176;2022-09-03T11:39:35;7.70;;;2.30;;
4698;SDS011;33708;49.466;11.176;2022-09-03T11:42:20;5.93;;;1.97;;
4698;SDS011;33708;49.466;11.176;2022-09-03T11:47:45;7.90;;;2.10;;
4698;SDS011;33708;49.466;11.176;2022-09-03T11:52:44;10.03;;;2.40;;
4698;SDS011;33708;49.466;11.176;2022-09-03T11:55:10;7.37;;;2.13;;
4698;SDS011;33708;49.466;11.176;2022-09-03T11:57:40;8.40;;;2.17;;
4698;SDS011;33708;49.466;11.176;2022-09-03T12:02:43;10.70;;;2.20;;
4698;SDS011;33708;49.466;11.176;2022-09-03T12:18:24;8.77;;;2.80;;
4698;SDS011;33708;49.466;11.176;2022-09-03T12:23:25;12.70;;;2.23;;
4698;SDS011;33708;49.466;11.176;2022-09-03T12:25:52;7.30;;;2.50;;
4698;SDS011;33708;49.466;11.176;2022-09-03T12:28:20;7.13;;;2.70;;
4698;SDS011;33708;49.466;11.176;2022-09-03T12:30:49;14.33;;;4.90;;
4698;SDS011;33708;49.466;11.176;2022-09-03T12:33:17;7.80;;;3.07;;
4698;SDS011;33708;49.466;11.176;2022-09-03T12:35:57;7.63;;;3.30;;
4698;SDS011;33708;49.466;11.176;2022-09-03T12:38:24;8.83;;;3.50;;
4698;SDS011;33708;49.466;11.176;2022-09-03T12:40:51;7.50;;;2.97;;
4698;SDS011;33708;49.466;11.176;2022-09-03T12:43:17;7.83;;;3.10;;
4698;SDS011;33708;49.466;11.176;2022-09-03T12:45:44;9.30;;;2.50;;
4698;SDS011;33708;49.466;11.176;2022-09-03T12:48:12;7.90;;;3.00;;
4698;SDS011;33708;49.466;11.176;2022-09-03T12:50:42;8.57;;;2.87;;
4698;SDS011;33708;49.466;11.176;2022-09-03T12:53:18;7.30;;;2.70;;
4698;SDS011;33708;49.466;11.176;2022-09-03T12:55:48;7.60;;;2.33;;
4698;SDS011;33708;49.466;11.176;2022-09-03T13:01:07;10.07;;;3.10;;
4698;SDS011;33708;49.466;11.176;2022-09-03T13:03:48;8.33;;;3.43;;
4698;SDS011;33708;49.466;11.176;2022-09-03T13:06:25;9.90;;;3.03;;
4698;SDS011;33708;49.466;11.176;2022-09-03T13:08:58;8.87;;;2.87;;
4698;SDS011;33708;49.466;11.176;2022-09-03T13:11:27;6.17;;;2.50;;
4698;SDS011;33708;49.466;11.176;2022-09-03T13:14:00;6.57;;;2.43;;
4698;SDS011;33708;49.466;11.176;2022-09-03T13:22:15;8.27;;;2.53;;
4698;SDS011;33708;49.466;11.176;2022-09-03T13:32:58;6.93;;;2.60;;
4698;SDS011;33708;49.466;11.176;2022-09-03T13:38:37;10.07;;;3.00;;
4698;SDS011;33708;49.466;11.176;2022-09-03T13:52:19;8.27;;;2.53;;
4698;SDS011;33708;49.466;11.176;2022-09-03T13:54:55;12.60;;;2.70;;
4698;SDS011;33708;49.466;11.176;2022-09-03T13:57:33;6.90;;;2.43;;
4698;SDS011;33708;49.466;11.176;2022-09-03T14:00:06;8.30;;;2.30;;
4698;SDS011;33708;49.466;11.176;2022-09-03T14:10:58;8.67;;;2.67;;
4698;SDS011;33708;49.466;11.176;2022-09-03T14:16:41;9.20;;;2.37;;
4698;SDS011;33708;49.466;11.176;2022-09-03T14:19:19;7.10;;;2.47;;
4698;SDS011;33708;49.466;11.176;2022-09-03T14:22:13;7.43;;;2.70;;
4698;SDS011;33708;49.466;11.176;2022-09-03T14:27:30;7.83;;;2.37;;
4698;SDS011;33708;49.466;11.176;2022-09-03T14:30:05;9.27;;;2.77;;
4698;SDS011;33708;49.466;11.176;2022-09-03T14:33:02;7.97;;;2.83;;
4698;SDS011;33708;49.466;11.176;2022-09-03T14:35:37;9.83;;;2.57;;
4698;SDS011;33708;49.466;11.176;2022-09-03T14:38:20;12.63;;;2.43;;
4698;SDS011;33708;49.466;11.176;2022-09-03T14:55:12;7.77;;;2.90;;
4698;SDS011;33708;49.466;11.176;2022-09-03T15:06:31;6.87;;;2.47;;
4698;SDS011;33708;49.466;11.176;2022-09-03T15:11:58;6.00;;;2.30;;
4698;SDS011;33708;49.466;11.176;2022-09-03T15:23:18;18.23;;;2.60;;
4698;SDS011;33708;49.466;11.176;2022-09-03T15:28:54;10.17;;;3.20;;
4698;SDS011;33708;49.466;11.176;2022-09-03T15:37:27;6.33;;;2.70;;
4698;SDS011;33708;49.466;11.176;2022-09-03T15:40:00;7.93;;;2.63;;
4698;SDS011;33708;49.466;11.176;2022-09-03T15:42:27;7.17;;;2.83;;
4698;SDS011;33708;49.466;11.176;2022-09-03T15:44:55;7.60;;;2.10;;
4698;SDS011;33708;49.466;11.176;2022-09-03T15:47:32;7.30;;;3.07;;
4698;SDS011;33708;49.466;11.176;2022-09-03T15:50:13;7.27;;;2.80;;
4698;SDS011;33708;49.466;11.176;2022-09-03T15:52:57;9.10;;;3.20;;
4698;SDS011;33708;49.466;11.176;2022-09-03T15:55:32;13.70;;;2.93;;
4698;SDS011;33708;49.466;11.176;2022-09-03T16:03:15;7.47;;;2.83;;
4698;SDS011;33708;49.466;11.176;2022-09-03T16:08:52;12.73;;;2.67;;
4698;SDS011;33708;49.466;11.176;2022-09-03T16:11:33;7.43;;;2.90;;
4698;SDS011;33708;49.466;11.176;2022-09-03T16:14:16;7.57;;;2.57;;
4698;SDS011;33708;49.466;11.176;2022-09-03T16:17:00;6.80;;;2.70;;
4698;SDS011;33708;49.466;11.176;2022-09-03T16:19:40;8.27;;;2.60;;
4698;SDS011;33708;49.466;11.176;2022-09-03T16:22:21;9.50;;;3.00;;
4698;SDS011;33708;49.466;11.176;2022-09-03T16:27:56;10.47;;;3.03;;
4698;SDS011;33708;49.466;11.176;2022-09-03T16:44:31;12.73;;;4.10;;
4698;SDS011;33708;49.466;11.176;2022-09-03T16:47:38;13.63;;;4.70;;
4698;SDS011;33708;49.466;11.176;2022-09-03T16:50:21;8.50;;;2.87;;
4698;SDS011;33708;49.466;11.176;2022-09-03T17:01:59;5.80;;;1.90;;
4698;SDS011;33708;49.466;11.176;2022-09-03T17:04:55;19.77;;;2.83;;
4698;SDS011;33708;49.466;11.176;2022-09-03T17:15:27;14.00;;;3.67;;
4698;SDS011;33708;49.466;11.176;2022-09-03T17:21:04;10.40;;;3.80;;
4698;SDS011;33708;49.466;11.176;2022-09-03T17:31:41;11.40;;;3.70;;
4698;SDS011;33708;49.466;11.176;2022-09-03T17:37:19;17.07;;;3.60;;
4698;SDS011;33708;49.466;11.176;2022-09-03T17:39:58;15.93;;;3.50;;
4698;SDS011;33708;49.466;11.176;2022-09-03T17:48:04;10.70;;;3.57;;
4698;SDS011;33708;49.466;11.176;2022-09-03T17:50:40;8.77;;;3.93;;
4698;SDS011;33708;49.466;11.176;2022-09-03T17:53:21;10.30;;;3.97;;
4698;SDS011;33708;49.466;11.176;2022-09-03T17:56:17;13.03;;;3.60;;
4698;SDS011;33708;49.466;11.176;2022-09-03T17:58:48;10.80;;;3.40;;
4698;SDS011;33708;49.466;11.176;2022-09-03T18:01:38;10.73;;;3.70;;
4698;SDS011;33708;49.466;11.176;2022-09-03T18:07:03;10.77;;;3.67;;
4698;SDS011;33708;49.466;11.176;2022-09-03T18:09:39;14.17;;;4.23;;
4698;SDS011;33708;49.466;11.176;2022-09-03T18:14:50;10.67;;;3.57;;
4698;SDS011;33708;49.466;11.176;2022-09-03T18:17:36;9.10;;;4.00;;
4698;SDS011;33708;49.466;11.176;2022-09-03T18:20:09;11.97;;;3.57;;
4698;SDS011;33708;49.466;11.176;2022-09-03T18:23:30;9.83;;;3.20;;
4698;SDS011;33708;49.466;11.176;2022-09-03T18:26:13;11.57;;;3.00;;
4698;SDS011;33708;49.466;11.176;2022-09-03T18:29:05;8.10;;;2.60;;
4698;SDS011;33708;49.466;11.176;2022-09-03T18:31:55;8.33;;;3.30;;
4698;SDS011;33708;49.466;11.176;2022-09-03T18:34:39;9.20;;;3.73;;
4698;SDS011;33708;49.466;11.176;2022-09-03T18:37:25;8.37;;;2.90;;
4698;SDS011;33708;49.466;11.176;2022-09-03T18:40:13;12.23;;;4.33;;
4698;SDS011;33708;49.466;11.176;2022-09-03T18:46:08;12.73;;;4.40;;
4698;SDS011;33708;49.466;11.176;2022-09-03T18:57:34;11.50;;;3.80;;
4698;SDS011;33708;49.466;11.176;2022-09-03T19:00:29;12.67;;;4.47;;
4698;SDS011;33708;49.466;11.176;2022-09-03T19:09:15;11.73;;;4.73;;
4698;SDS011;33708;49.466;11.176;2022-09-03T19:15:20;10.20;;;4.67;;
4698;SDS011;33708;49.466;11.176;2022-09-03T19:18:08;11.57;;;4.87;;
4698;SDS011;33708;49.466;11.176;2022-09-03T19:24:11;14.27;;;5.53;;
4698;SDS011;33708;49.466;11.176;2022-09-03T19:30:10;17.13;;;6.67;;
4698;SDS011;33708;49.466;11.176;2022-09-03T19:33:08;12.20;;;6.03;;
4698;SDS011;33708;49.466;11.176;2022-09-03T19:42:24;12.47;;;5.87;;
4698;SDS011;33708;49.466;11.176;2022-09-03T19:51:24;16.43;;;5.83;;
4698;SDS011;33708;49.466;11.176;2022-09-03T19:54:17;10.50;;;4.57;;
4698;SDS011;33708;49.466;11.176;2022-09-03T19:57:05;8.77;;;4.43;;
4698;SDS011;33708;49.466;11.176;2022-09-03T19:59:51;11.73;;;5.20;;
4698;SDS011;33708;49.466;11.176;2022-09-03T20:02:35;11.57;;;5.00;;
4698;SDS011;33708;49.466;11.176;2022-09-03T20:05:21;17.53;;;5.90;;
4698;SDS011;33708;49.466;11.176;2022-09-03T20:08:06;10.57;;;5.40;;
4698;SDS011;33708;49.466;11.176;2022-09-03T20:10:55;13.40;;;6.43;;
4698;SDS011;33708;49.466;11.176;2022-09-03T20:13:22;12.50;;;6.67;;
4698;SDS011;33708;49.466;11.176;2022-09-03T20:26:41;9.67;;;4.90;;
4698;SDS011;33708;49.466;11.176;2022-09-03T20:40:35;11.70;;;5.37;;
4698;SDS011;33708;49.466;11.176;2022-09-03T20:45:50;12.73;;;5.90;;
4698;SDS011;33708;49.466;11.176;2022-09-03T20:51:05;16.73;;;6.70;;
4698;SDS011;33708;49.466;11.176;2022-09-03T21:07:04;11.40;;;5.80;;
4698;SDS011;33708;49.466;11.176;2022-09-03T21:15:53;12.53;;;5.70;;
4698;SDS011;33708;49.466;11.176;2022-09-03T21:18:57;9.60;;;4.67;;
4698;SDS011;33708;49.466;11.176;2022-09-03T21:24:21;11.03;;;5.70;;
4698;SDS011;33708;49.466;11.176;2022-09-03T21:27:01;16.20;;;5.73;;
4698;SDS011;33708;49.466;11.176;2022-09-03T21:32:32;12.43;;;5.70;;
4698;SDS011;33708;49.466;11.176;2022-09-03T21:35:05;11.13;;;5.50;;
4698;SDS011;33708;49.466;11.176;2022-09-03T21:37:34;10.10;;;5.60;;
4698;SDS011;33708;49.466;11.176;2022-09-03T21:40:02;13.60;;;5.20;;